Time;durP1;ratioP1;P1;durP2;ratioP2;P2;SDS_P1;SDS_P2;PMS_P1;PMS_P2;Temp;Humidity;BMP_temperature;BMP_pressure;BME280_temperature;BME280_humidity;BME280_pressure;Samples;Min_cycle;Max_cycle;Signal;HPM_P1;HPM_P2
2023/11/16 00:00:12;;;;;;;5.87;2.30;;;9.30;81.40;;;;;;5009819;28;21080;-76
2023/11/16 00:02:44;;;;;;;4.20;2.53;;;9.30;81.40;;;;;;5009174;28;20181;-76
2023/11/16 00:05:16;;;;;;;5.67;2.70;;;9.20;81.10;;;;;;5010145;28;20454;-75
2023/11/16 00:07:45;;;;;;;8.77;2.83;;;9.20;81.20;;;;;;5012020;28;20487;-75
2023/11/16 00:10:14;;;;;;;9.70;2.30;;;9.20;81.20;;;;;;5012309;28;21064;-75
2023/11/16 00:12:40;;;;;;;4.30;2.20;;;9.20;81.10;;;;;;5012188;28;20428;-75
2023/11/16 00:15:06;;;;;;;4.20;2.43;;;9.20;81.40;;;;;;5012459;28;20807;-76
2023/11/16 00:17:33;;;;;;;5.77;2.30;;;9.20;81.40;;;;;;5011913;28;20460;-76
2023/11/16 00:20:00;;;;;;;5.63;2.10;;;9.20;81.40;;;;;;5009051;28;20965;-74
2023/11/16 00:22:26;;;;;;;7.30;2.10;;;9.20;81.20;;;;;;5010706;28;20551;-74
2023/11/16 00:24:52;;;;;;;5.33;1.90;;;9.20;81.20;;;;;;5009647;28;20999;-74
2023/11/16 00:27:20;;;;;;;8.23;2.67;;;9.20;81.40;;;;;;4989857;28;20555;-75
2023/11/16 00:29:46;;;;;;;7.17;2.20;;;9.20;81.20;;;;;;5012083;28;20413;-76
2023/11/16 00:32:13;;;;;;;3.43;2.10;;;9.10;81.10;;;;;;5011910;28;20846;-75
2023/11/16 00:34:40;;;;;;;4.77;2.00;;;9.10;81.50;;;;;;4999612;28;20558;-74
2023/11/16 00:37:06;;;;;;;5.33;2.33;;;9.10;81.50;;;;;;5008307;28;20445;-75
2023/11/16 00:39:34;;;;;;;8.07;2.80;;;9.10;81.70;;;;;;5011394;28;20748;-76
2023/11/16 00:42:00;;;;;;;5.83;2.23;;;9.10;81.70;;;;;;5011290;28;20462;-76
2023/11/16 00:44:26;;;;;;;8.13;2.40;;;9.10;81.70;;;;;;5007948;28;20590;-76
2023/11/16 00:46:52;;;;;;;5.23;2.07;;;9.00;81.50;;;;;;5009889;28;20484;-76
2023/11/16 00:49:18;;;;;;;9.03;2.13;;;9.00;82.10;;;;;;5007493;28;20185;-77
2023/11/16 00:51:44;;;;;;;4.83;2.33;;;8.90;82.20;;;;;;5011309;28;20433;-76
2023/11/16 00:54:13;;;;;;;5.17;2.30;;;8.90;82.70;;;;;;5010628;28;20465;-76
2023/11/16 00:56:39;;;;;;;7.03;2.97;;;8.90;83.00;;;;;;5020080;28;20456;-75
2023/11/16 00:59:05;;;;;;;6.03;3.30;;;8.80;83.10;;;;;;5025088;28;20513;-74
2023/11/16 01:01:34;;;;;;;3.97;2.20;;;8.80;83.10;;;;;;5027358;28;20439;-75
2023/11/16 01:04:01;;;;;;;7.60;2.47;;;8.80;83.40;;;;;;4980250;28;20519;-75
2023/11/16 01:06:32;;;;;;;5.70;2.10;;;8.80;83.10;;;;;;4994151;28;20495;-75
2023/11/16 01:08:59;;;;;;;6.17;2.47;;;8.80;83.10;;;;;;5013900;28;20441;-76
2023/11/16 01:11:27;;;;;;;10.53;2.50;;;8.80;83.00;;;;;;5013962;28;20798;-76
2023/11/16 01:13:54;;;;;;;5.13;2.03;;;8.80;83.10;;;;;;5012994;28;20464;-76
2023/11/16 01:16:22;;;;;;;8.23;2.03;;;8.80;83.00;;;;;;5013268;28;20429;-76
2023/11/16 01:18:51;;;;;;;4.90;2.37;;;8.80;83.00;;;;;;5011330;28;20425;-75
2023/11/16 01:21:20;;;;;;;13.00;3.13;;;8.90;83.10;;;;;;5011173;28;20949;-76
2023/11/16 01:23:47;;;;;;;7.40;2.30;;;8.90;83.10;;;;;;5010668;28;20449;-76
2023/11/16 01:26:15;;;;;;;7.13;2.60;;;8.80;83.10;;;;;;5008946;28;20468;-76
2023/11/16 01:28:47;;;;;;;7.03;2.47;;;8.80;83.60;;;;;;5011198;28;20440;-76
2023/11/16 01:31:19;;;;;;;5.63;2.27;;;8.70;83.70;;;;;;5011899;28;20508;-75
2023/11/16 01:33:46;;;;;;;3.57;2.10;;;8.70;83.80;;;;;;5011596;28;20455;-76
2023/11/16 01:36:13;;;;;;;6.80;2.90;;;8.70;84.00;;;;;;5009782;28;20441;-75
2023/11/16 01:38:39;;;;;;;6.47;2.27;;;8.70;84.00;;;;;;5012048;28;20426;-75
2023/11/16 01:41:08;;;;;;;2.93;1.73;;;8.60;84.00;;;;;;5012830;28;20420;-76
2023/11/16 01:43:34;;;;;;;5.20;2.27;;;8.70;84.10;;;;;;5008748;28;20464;-75
2023/11/16 01:46:05;;;;;;;6.67;2.40;;;8.80;84.00;;;;;;5012002;28;20518;-73
2023/11/16 01:48:58;;;;;;;4.13;2.10;;;8.80;83.70;;;;;;5012976;28;20436;-74
2023/11/16 01:51:27;;;;;;;4.70;2.07;;;8.80;83.60;;;;;;5008212;28;20463;-77
2023/11/16 01:53:58;;;;;;;11.23;2.50;;;8.80;83.30;;;;;;5008247;28;20468;-76
2023/11/16 01:56:29;;;;;;;5.23;1.80;;;8.90;83.00;;;;;;5011482;28;20559;-75
2023/11/16 01:58:58;;;;;;;4.20;2.17;;;8.80;83.30;;;;;;5014230;28;20448;-74
2023/11/16 02:01:26;;;;;;;5.50;2.10;;;8.80;83.70;;;;;;5012245;28;20444;-73
2023/11/16 02:03:53;;;;;;;4.83;2.07;;;8.80;84.00;;;;;;5014476;28;20448;-74
2023/11/16 02:06:18;;;;;;;3.97;1.90;;;8.80;84.30;;;;;;5014064;28;20468;-74
2023/11/16 02:08:44;;;;;;;4.73;2.40;;;8.70;84.30;;;;;;5011868;28;20874;-77
2023/11/16 02:11:10;;;;;;;3.23;1.93;;;8.70;84.30;;;;;;5010152;28;20643;-76
2023/11/16 02:13:36;;;;;;;3.43;1.73;;;8.70;84.40;;;;;;5013317;28;20213;-74
2023/11/16 02:16:04;;;;;;;4.63;1.90;;;8.70;84.60;;;;;;5013758;28;20455;-75
2023/11/16 02:18:30;;;;;;;5.73;2.10;;;8.70;84.30;;;;;;5013760;28;20190;-74
2023/11/16 02:20:55;;;;;;;5.67;2.33;;;8.70;84.10;;;;;;5013697;28;20463;-76
2023/11/16 02:23:21;;;;;;;4.90;2.37;;;8.70;84.10;;;;;;5011100;28;20205;-75
2023/11/16 02:25:52;;;;;;;6.47;1.80;;;8.70;84.30;;;;;;5013503;28;20194;-75
2023/11/16 02:28:21;;;;;;;3.87;2.00;;;8.70;84.30;;;;;;5013652;28;20961;-75
2023/11/16 02:30:57;;;;;;;8.53;1.87;;;8.70;84.40;;;;;;5003460;28;20964;-76
2023/11/16 02:33:23;;;;;;;3.17;2.03;;;8.80;84.30;;;;;;5013718;28;20614;-75
2023/11/16 02:35:52;;;;;;;7.20;2.77;;;8.80;84.10;;;;;;5014493;28;20433;-74
2023/11/16 02:38:18;;;;;;;3.53;1.87;;;8.80;84.10;;;;;;4996666;28;20182;-74
2023/11/16 02:40:44;;;;;;;5.47;2.10;;;8.80;84.30;;;;;;5011835;28;20510;-74
2023/11/16 02:43:11;;;;;;;6.13;2.10;;;8.90;84.30;;;;;;5013065;28;20833;-74
2023/11/16 02:45:37;;;;;;;5.57;2.30;;;8.90;84.10;;;;;;5011950;28;20569;-75
2023/11/16 02:48:04;;;;;;;5.70;2.40;;;8.90;84.30;;;;;;5013001;28;20899;-76
2023/11/16 02:50:30;;;;;;;4.27;2.03;;;8.80;84.60;;;;;;5013317;28;20463;-75
2023/11/16 02:52:56;;;;;;;10.03;2.67;;;8.70;84.60;;;;;;5012908;28;21109;-75
2023/11/16 02:55:25;;;;;;;6.93;2.27;;;8.70;84.90;;;;;;5012195;28;20210;-75
2023/11/16 02:57:55;;;;;;;3.93;2.27;;;8.80;85.00;;;;;;4993716;28;20277;-77
2023/11/16 03:00:21;;;;;;;5.20;2.10;;;8.80;85.00;;;;;;5008799;28;20961;-75
2023/11/16 03:02:49;;;;;;;3.50;1.90;;;8.80;84.90;;;;;;5017348;28;20520;-74
2023/11/16 03:05:15;;;;;;;3.40;2.10;;;8.90;84.90;;;;;;5013141;28;20457;-75
2023/11/16 03:07:41;;;;;;;7.10;2.37;;;8.90;84.70;;;;;;5013315;28;20468;-74
2023/11/16 03:10:11;;;;;;;4.40;2.13;;;8.80;84.70;;;;;;5009253;28;20929;-75
2023/11/16 03:12:38;;;;;;;4.80;2.07;;;8.80;85.20;;;;;;5012736;28;20921;-75
2023/11/16 03:15:06;;;;;;;6.27;2.03;;;8.80;85.30;;;;;;5013450;28;20444;-75
2023/11/16 03:17:32;;;;;;;5.10;2.57;;;8.80;85.50;;;;;;5012983;28;20514;-74
2023/11/16 03:19:58;;;;;;;4.03;2.20;;;8.70;85.70;;;;;;4998623;28;20440;-75
2023/11/16 03:22:25;;;;;;;4.80;2.13;;;8.70;86.00;;;;;;5001476;28;20573;-75
2023/11/16 03:24:52;;;;;;;3.13;1.83;;;8.80;86.30;;;;;;5012098;28;20444;-75
2023/11/16 03:27:18;;;;;;;2.83;2.20;;;8.80;86.50;;;;;;5010948;28;20465;-75
2023/11/16 03:29:44;;;;;;;7.20;2.40;;;8.90;86.60;;;;;;5011781;28;20443;-75
2023/11/16 03:32:10;;;;;;;4.67;2.20;;;8.90;86.60;;;;;;5013483;28;20189;-75
2023/11/16 03:34:36;;;;;;;4.07;2.17;;;8.90;86.80;;;;;;5008998;28;20448;-76
2023/11/16 03:37:05;;;;;;;5.33;2.10;;;9.00;86.90;;;;;;5012636;28;20189;-75
2023/11/16 03:39:31;;;;;;;6.37;2.17;;;9.00;86.80;;;;;;5012821;28;20433;-75
2023/11/16 03:42:03;;;;;;;6.67;2.50;;;8.90;86.60;;;;;;5013019;28;20494;-74
2023/11/16 03:44:29;;;;;;;8.63;2.13;;;8.90;86.60;;;;;;5013010;28;20446;-75
2023/11/16 03:46:56;;;;;;;7.97;2.07;;;8.80;86.50;;;;;;5014893;28;20538;-75
2023/11/16 03:49:22;;;;;;;7.13;2.20;;;8.80;86.60;;;;;;5013904;28;20436;-74
2023/11/16 03:51:48;;;;;;;5.20;2.23;;;8.70;86.60;;;;;;5013561;28;20440;-76
2023/11/16 03:54:15;;;;;;;6.17;2.77;;;8.70;86.50;;;;;;5011861;28;20464;-76
2023/11/16 03:56:41;;;;;;;8.80;2.70;;;8.70;86.60;;;;;;5012008;28;20433;-75
2023/11/16 03:59:07;;;;;;;4.27;2.20;;;8.60;86.60;;;;;;5011925;28;20431;-75
2023/11/16 04:01:35;;;;;;;3.73;2.17;;;8.60;86.80;;;;;;5012343;28;20321;-75
2023/11/16 04:04:00;;;;;;;3.40;1.97;;;8.60;86.60;;;;;;5011172;28;20209;-75
2023/11/16 04:06:26;;;;;;;4.57;2.80;;;8.60;86.50;;;;;;5011822;28;20475;-75
2023/11/16 04:08:52;;;;;;;4.63;2.40;;;8.70;86.50;;;;;;5011558;28;20239;-76
2023/11/16 04:11:19;;;;;;;3.40;2.07;;;8.70;86.30;;;;;;5011870;28;20425;-76
2023/11/16 04:13:46;;;;;;;6.20;2.00;;;8.70;86.50;;;;;;5011434;28;20219;-75
2023/11/16 04:16:21;;;;;;;4.10;2.17;;;8.80;86.30;;;;;;5019933;28;20500;-75
2023/11/16 04:18:50;;;;;;;6.43;2.67;;;8.70;86.20;;;;;;5016768;28;20484;-74
2023/11/16 04:21:20;;;;;;;3.20;2.50;;;8.70;86.30;;;;;;5011899;28;20433;-75
2023/11/16 04:23:52;;;;;;;6.90;2.10;;;8.70;86.50;;;;;;5010822;28;20497;-76
2023/11/16 04:26:21;;;;;;;6.17;2.23;;;8.70;86.60;;;;;;5012092;28;20447;-76
2023/11/16 04:28:47;;;;;;;5.10;2.20;;;8.80;86.80;;;;;;5011697;28;20484;-75
2023/11/16 04:31:14;;;;;;;3.50;2.10;;;8.90;86.90;;;;;;5011748;28;20420;-74
2023/11/16 04:33:40;;;;;;;5.40;2.60;;;8.90;86.90;;;;;;5011212;28;20463;-75
2023/11/16 04:36:08;;;;;;;7.80;2.63;;;9.00;86.60;;;;;;5013514;28;20421;-75
2023/11/16 04:38:34;;;;;;;5.37;2.10;;;9.00;86.60;;;;;;5013638;28;20421;-74
2023/11/16 04:41:02;;;;;;;6.30;2.20;;;9.00;86.60;;;;;;5012289;28;20416;-74
2023/11/16 04:43:30;;;;;;;4.00;2.37;;;9.00;86.20;;;;;;5007480;28;20497;-74
2023/11/16 04:45:56;;;;;;;5.77;2.20;;;9.00;86.00;;;;;;4974135;28;20485;-75
2023/11/16 04:48:22;;;;;;;5.70;1.90;;;9.00;85.90;;;;;;4991581;28;20477;-75
2023/11/16 04:50:48;;;;;;;10.33;2.27;;;9.00;85.60;;;;;;4992827;28;20552;-75
2023/11/16 04:53:14;;;;;;;5.40;2.80;;;9.00;85.50;;;;;;4990367;28;20325;-75
2023/11/16 04:55:39;;;;;;;5.30;2.30;;;9.00;85.30;;;;;;4991138;28;20864;-75
2023/11/16 04:58:05;;;;;;;4.60;2.17;;;9.00;85.30;;;;;;4995946;28;20422;-75
2023/11/16 05:00:31;;;;;;;5.57;2.20;;;9.00;84.90;;;;;;4991505;28;20187;-75
2023/11/16 05:02:56;;;;;;;8.20;2.70;;;9.00;84.70;;;;;;4990975;28;20195;-75
2023/11/16 05:05:23;;;;;;;3.00;2.23;;;9.00;84.60;;;;;;4991125;28;20205;-76
2023/11/16 05:07:48;;;;;;;3.20;2.60;;;9.00;84.90;;;;;;4993772;28;20206;-76
2023/11/16 05:10:16;;;;;;;6.30;2.33;;;8.90;84.60;;;;;;5010799;28;20451;-76
2023/11/16 05:12:42;;;;;;;4.90;2.03;;;8.90;84.70;;;;;;4992457;28;20189;-75
2023/11/16 05:15:10;;;;;;;8.60;2.27;;;8.90;84.90;;;;;;4991151;28;20469;-76
2023/11/16 05:17:36;;;;;;;6.00;2.53;;;8.90;84.70;;;;;;4991236;28;20426;-75
2023/11/16 05:20:01;;;;;;;3.63;2.50;;;8.90;84.60;;;;;;4991263;28;20485;-75
2023/11/16 05:22:27;;;;;;;4.57;2.13;;;8.90;84.70;;;;;;4990897;28;20546;-75
2023/11/16 05:24:53;;;;;;;7.00;2.30;;;8.80;84.90;;;;;;4990221;28;20218;-75
2023/11/16 05:27:19;;;;;;;5.60;2.77;;;8.80;84.70;;;;;;4990545;28;20229;-75
2023/11/16 05:29:45;;;;;;;3.83;2.27;;;8.80;84.60;;;;;;4991646;28;20179;-74
2023/11/16 05:32:11;;;;;;;7.47;2.53;;;8.90;84.30;;;;;;4994370;28;20829;-76
2023/11/16 05:34:37;;;;;;;5.33;2.40;;;8.90;84.10;;;;;;5004588;28;20440;-75
2023/11/16 05:37:03;;;;;;;5.10;2.17;;;8.90;84.40;;;;;;5014027;28;20190;-75
2023/11/16 05:39:28;;;;;;;3.87;2.40;;;8.90;84.40;;;;;;5014233;28;20929;-75
2023/11/16 05:41:54;;;;;;;8.87;2.10;;;8.80;84.70;;;;;;5015000;28;20217;-75
2023/11/16 05:44:20;;;;;;;5.63;2.40;;;8.80;84.90;;;;;;5014081;28;20210;-75
2023/11/16 05:46:45;;;;;;;9.17;2.60;;;8.80;85.00;;;;;;4980157;28;1078702;-75
2023/11/16 05:49:11;;;;;;;7.73;2.63;;;8.70;85.20;;;;;;5018769;28;20508;-78
2023/11/16 05:51:37;;;;;;;6.70;3.07;;;8.60;85.50;;;;;;5015767;28;20527;-75
2023/11/16 05:54:07;;;;;;;7.23;2.53;;;8.60;85.50;;;;;;5015565;28;20522;-76
2023/11/16 05:56:40;;;;;;;8.23;2.60;;;8.60;85.30;;;;;;5023718;28;20224;-75
2023/11/16 05:59:08;;;;;;;9.23;2.73;;;8.70;85.30;;;;;;5020225;28;20416;-74
2023/11/16 06:01:35;;;;;;;8.73;2.43;;;8.70;85.20;;;;;;5015311;28;20421;-76
2023/11/16 06:04:00;;;;;;;6.00;2.80;;;8.80;85.00;;;;;;5013789;28;20441;-75
2023/11/16 06:06:26;;;;;;;5.83;2.93;;;8.80;84.70;;;;;;5014385;28;20484;-75
2023/11/16 06:08:52;;;;;;;4.63;2.50;;;8.90;84.60;;;;;;5014651;28;20452;-75
2023/11/16 06:11:17;;;;;;;3.20;1.80;;;8.80;84.30;;;;;;5017379;28;20190;-76
2023/11/16 06:13:43;;;;;;;9.90;2.63;;;8.90;84.10;;;;;;5013789;28;20210;-77
2023/11/16 06:16:08;;;;;;;6.53;2.33;;;8.80;84.00;;;;;;5014187;28;20185;-75
2023/11/16 06:18:34;;;;;;;8.63;2.43;;;8.80;84.10;;;;;;5014166;28;20182;-76
2023/11/16 06:21:00;;;;;;;7.70;2.77;;;8.80;84.10;;;;;;5013771;28;20542;-75
2023/11/16 06:23:26;;;;;;;6.93;2.87;;;8.80;84.10;;;;;;5013456;28;20457;-77
2023/11/16 06:25:52;;;;;;;9.27;2.60;;;8.80;84.10;;;;;;5014038;28;20471;-76
2023/11/16 06:28:17;;;;;;;7.87;2.93;;;8.80;84.10;;;;;;5014389;28;20694;-76
2023/11/16 06:30:43;;;;;;;6.40;2.57;;;8.80;84.10;;;;;;5014641;28;20431;-76
2023/11/16 06:33:09;;;;;;;7.73;2.30;;;8.80;84.10;;;;;;5014143;28;20194;-75
2023/11/16 06:35:34;;;;;;;7.73;2.40;;;8.80;84.10;;;;;;5009096;28;20425;-74
2023/11/16 06:38:00;;;;;;;10.70;2.40;;;8.80;84.00;;;;;;4988705;28;20182;-75
2023/11/16 06:40:25;;;;;;;5.00;2.90;;;8.80;83.60;;;;;;5009156;28;20381;-77
2023/11/16 06:42:52;;;;;;;9.50;3.10;;;8.90;83.60;;;;;;5008949;28;20193;-77
2023/11/16 06:45:19;;;;;;;6.10;2.37;;;8.90;83.40;;;;;;5014365;28;20213;-76
2023/11/16 06:47:48;;;;;;;6.87;2.53;;;8.90;83.30;;;;;;5013964;28;20472;-75
2023/11/16 06:50:13;;;;;;;5.17;2.37;;;8.90;83.10;;;;;;5014800;28;20439;-76
2023/11/16 06:52:41;;;;;;;6.43;2.60;;;8.90;83.00;;;;;;5019235;28;20425;-76
2023/11/16 06:55:10;;;;;;;8.83;2.87;;;8.90;82.80;;;;;;5013855;28;20289;-76
2023/11/16 06:57:36;;;;;;;3.17;2.10;;;8.90;82.70;;;;;;4997039;28;20464;-77
2023/11/16 07:00:08;;;;;;;7.73;2.00;;;8.90;82.70;;;;;;5014575;28;20933;-76
2023/11/16 07:02:34;;;;;;;8.13;2.37;;;8.90;82.40;;;;;;5014290;28;20189;-77
2023/11/16 07:05:00;;;;;;;8.93;2.67;;;8.90;82.40;;;;;;5013362;28;20528;-76
2023/11/16 07:07:26;;;;;;;5.50;2.47;;;8.90;82.20;;;;;;5015617;28;20516;-76
2023/11/16 07:09:51;;;;;;;4.40;2.43;;;8.90;81.90;;;;;;5014878;28;20201;-76
2023/11/16 07:12:20;;;;;;;4.13;1.80;;;9.00;81.80;;;;;;5015203;28;20622;-77
2023/11/16 07:14:48;;;;;;;9.63;2.30;;;9.00;81.80;;;;;;4978442;28;20232;-78
2023/11/16 07:17:14;;;;;;;5.03;2.03;;;9.00;81.70;;;;;;4995337;28;20477;-76
2023/11/16 07:19:39;;;;;;;6.87;3.10;;;9.00;81.70;;;;;;4996635;28;20434;-78
2023/11/16 07:22:06;;;;;;;5.17;2.00;;;9.00;81.70;;;;;;5007123;28;20443;-75
2023/11/16 07:24:32;;;;;;;4.93;2.13;;;9.00;81.40;;;;;;5015170;28;20206;-77
2023/11/16 07:26:58;;;;;;;7.27;2.20;;;9.00;81.40;;;;;;5015932;28;20910;-77
2023/11/16 07:29:24;;;;;;;5.40;2.50;;;9.10;81.40;;;;;;4998475;28;20450;-76
2023/11/16 07:31:49;;;;;;;5.93;2.90;;;9.10;81.40;;;;;;5021117;28;20202;-75
2023/11/16 07:34:15;;;;;;;6.10;2.93;;;9.20;81.40;;;;;;5027948;28;20244;-76
2023/11/16 07:36:42;;;;;;;7.47;2.43;;;9.20;80.90;;;;;;5019661;28;20189;-76
2023/11/16 07:39:10;;;;;;;5.90;2.43;;;9.20;81.20;;;;;;5015579;28;20480;-76
2023/11/16 07:41:35;;;;;;;6.63;2.47;;;9.20;81.20;;;;;;5013113;28;20737;-75
2023/11/16 07:44:01;;;;;;;8.30;2.87;;;9.20;81.40;;;;;;4998068;28;20505;-77
2023/11/16 07:46:27;;;;;;;3.73;2.10;;;9.30;80.90;;;;;;5013016;28;20862;-77
2023/11/16 07:48:53;;;;;;;7.50;2.87;;;9.20;80.90;;;;;;5017264;28;20444;-76
2023/11/16 07:51:21;;;;;;;5.57;2.77;;;9.30;81.40;;;;;;5010148;28;20612;-76
2023/11/16 07:53:53;;;;;;;22.50;3.43;;;9.30;81.40;;;;;;4994934;28;20714;-76
2023/11/16 07:56:20;;;;;;;4.70;2.73;;;9.30;81.40;;;;;;5014310;28;20420;-76
2023/11/16 07:58:49;;;;;;;7.10;3.07;;;9.40;81.20;;;;;;5010937;28;20444;-76
2023/11/16 08:01:28;;;;;;;9.70;3.17;;;9.30;81.40;;;;;;4995399;28;20447;-78
2023/11/16 08:03:56;;;;;;;6.70;3.27;;;9.30;81.40;;;;;;5013599;28;20448;-77
2023/11/16 08:06:25;;;;;;;6.73;3.13;;;9.40;81.40;;;;;;5016702;28;20516;-76
2023/11/16 08:08:51;;;;;;;5.70;3.00;;;9.40;81.20;;;;;;5015478;28;20432;-77
2023/11/16 08:11:19;;;;;;;6.13;3.27;;;9.40;81.10;;;;;;4998151;28;20432;-76
2023/11/16 08:13:46;;;;;;;3.20;2.10;;;9.50;80.60;;;;;;5008452;28;20468;-77
2023/11/16 08:16:19;;;;;;;6.03;2.43;;;9.50;80.00;;;;;;5009492;28;20440;-75
2023/11/16 08:18:46;;;;;;;3.73;2.00;;;9.40;79.70;;;;;;5011461;28;20428;-77
2023/11/16 08:21:12;;;;;;;11.23;3.00;;;9.40;80.00;;;;;;5009983;28;21441;-76
2023/11/16 08:23:41;;;;;;;7.30;2.43;;;9.40;80.00;;;;;;5012557;28;20548;-77
2023/11/16 08:26:09;;;;;;;3.60;2.00;;;9.50;79.50;;;;;;5011516;28;20186;-77
2023/11/16 08:28:39;;;;;;;13.67;2.40;;;9.50;78.90;;;;;;5010255;28;20543;-77
2023/11/16 08:31:06;;;;;;;9.97;3.30;;;9.60;79.00;;;;;;5013590;28;21007;-75
2023/11/16 08:33:33;;;;;;;12.63;3.40;;;9.60;79.20;;;;;;5012203;28;20536;-75
2023/11/16 08:35:59;;;;;;;16.03;3.80;;;9.70;79.30;;;;;;4993144;28;20859;-76
2023/11/16 08:38:26;;;;;;;6.13;2.30;;;9.90;78.90;;;;;;5011837;28;20463;-76
2023/11/16 08:40:58;;;;;;;4.53;2.20;;;9.90;78.10;;;;;;4995729;28;20448;-76
2023/11/16 08:43:27;;;;;;;6.13;2.50;;;9.90;78.30;;;;;;5012995;28;20502;-77
2023/11/16 08:45:55;;;;;;;2.70;2.17;;;9.90;78.40;;;;;;5013093;28;20441;-76
2023/11/16 08:48:30;;;;;;;5.40;2.83;;;9.90;78.70;;;;;;4986606;28;20480;-76
2023/11/16 08:51:02;;;;;;;3.90;2.20;;;10.10;78.30;;;;;;5014183;28;20886;-76
2023/11/16 08:53:30;;;;;;;5.73;2.57;;;10.10;77.40;;;;;;5015667;28;20944;-75
2023/11/16 08:56:02;;;;;;;3.83;2.30;;;10.10;77.70;;;;;;5015769;28;20911;-77
2023/11/16 08:58:32;;;;;;;10.80;2.60;;;10.10;78.10;;;;;;5014582;28;20443;-76
2023/11/16 09:01:05;;;;;;;3.93;2.47;;;10.20;76.80;;;;;;5013165;28;20433;-77
2023/11/16 09:03:33;;;;;;;4.87;2.57;;;10.20;77.30;;;;;;5010268;28;20496;-77
2023/11/16 09:06:05;;;;;;;7.23;3.23;;;10.20;77.60;;;;;;5014916;28;20425;-76
2023/11/16 09:08:37;;;;;;;8.40;3.40;;;10.30;77.80;;;;;;5014706;28;20472;-77
2023/11/16 09:11:03;;;;;;;6.50;3.20;;;10.40;78.00;;;;;;5016697;28;20447;-75
2023/11/16 09:13:29;;;;;;;8.10;2.77;;;10.40;77.00;;;;;;5017108;28;20468;-76
2023/11/16 09:15:55;;;;;;;6.63;2.40;;;10.40;76.40;;;;;;5017421;28;20447;-76
2023/11/16 09:18:25;;;;;;;9.83;2.53;;;10.40;75.70;;;;;;5016727;28;20432;-75
2023/11/16 09:20:51;;;;;;;4.17;2.33;;;10.30;76.20;;;;;;5017623;28;20188;-75
2023/11/16 09:23:17;;;;;;;5.77;2.30;;;10.30;76.10;;;;;;5017251;28;20420;-76
2023/11/16 09:25:44;;;;;;;8.70;2.80;;;10.20;75.80;;;;;;5020213;28;20934;-76
2023/11/16 09:28:11;;;;;;;6.90;2.60;;;10.20;76.40;;;;;;5002454;28;20217;-77
2023/11/16 09:30:43;;;;;;;8.10;2.67;;;10.20;76.40;;;;;;4999208;28;20510;-76
2023/11/16 09:33:12;;;;;;;4.47;2.27;;;10.30;76.40;;;;;;5014104;28;20452;-76
2023/11/16 09:35:38;;;;;;;5.90;2.53;;;10.30;75.80;;;;;;5013231;28;20451;-77
2023/11/16 09:38:08;;;;;;;5.47;2.77;;;10.30;75.90;;;;;;5014204;28;20524;-75
2023/11/16 09:40:35;;;;;;;5.40;2.07;;;10.30;75.80;;;;;;5017366;28;20432;-76
2023/11/16 09:43:16;;;;;;;3.90;2.30;;;10.30;75.50;;;;;;5016635;28;20424;-76
2023/11/16 09:45:50;;;;;;;5.60;2.23;;;10.30;75.70;;;;;;5016236;28;20579;-77
2023/11/16 09:48:20;;;;;;;10.67;2.90;;;10.40;75.50;;;;;;5025137;28;20475;-75
2023/11/16 09:50:48;;;;;;;7.07;2.30;;;10.50;75.50;;;;;;5027267;28;20430;-76
2023/11/16 09:53:22;;;;;;;5.83;2.30;;;10.60;74.60;;;;;;5019198;28;20432;-76
2023/11/16 09:55:50;;;;;;;6.03;2.77;;;10.60;74.60;;;;;;5014864;28;20427;-76
2023/11/16 09:58:23;;;;;;;5.37;2.43;;;10.60;74.80;;;;;;5014710;28;20436;-77
2023/11/16 10:00:57;;;;;;;5.30;2.17;;;10.60;74.20;;;;;;5006382;28;20455;-76
2023/11/16 10:03:30;;;;;;;2.83;1.90;;;10.40;75.10;;;;;;5013820;28;20460;-74
2023/11/16 10:05:57;;;;;;;5.37;2.10;;;10.30;75.50;;;;;;5014731;28;20444;-75
2023/11/16 10:08:33;;;;;;;5.87;2.33;;;10.40;75.50;;;;;;5013724;28;20476;-76
2023/11/16 10:11:06;;;;;;;9.57;2.10;;;10.50;75.20;;;;;;5015501;28;20959;-76
2023/11/16 10:13:33;;;;;;;15.13;2.97;;;10.50;74.80;;;;;;5012134;28;20610;-76
2023/11/16 10:16:03;;;;;;;5.27;2.50;;;10.50;74.60;;;;;;5010179;28;20443;-75
2023/11/16 10:18:33;;;;;;;4.17;2.00;;;10.60;74.60;;;;;;5014619;28;20472;-76
2023/11/16 10:21:03;;;;;;;11.70;2.50;;;10.60;74.20;;;;;;5015294;28;20691;-77
2023/11/16 10:23:29;;;;;;;3.57;2.07;;;10.60;74.50;;;;;;5011631;28;20463;-75
2023/11/16 10:25:55;;;;;;;15.63;2.77;;;10.60;74.30;;;;;;5016383;28;20429;-76
2023/11/16 10:28:22;;;;;;;7.07;2.30;;;10.60;74.00;;;;;;5014365;28;20479;-77
2023/11/16 10:30:58;;;;;;;6.90;2.27;;;10.50;73.70;;;;;;5015441;28;20255;-76
2023/11/16 10:33:26;;;;;;;5.03;2.13;;;10.50;73.60;;;;;;5013271;28;20443;-75
2023/11/16 10:35:56;;;;;;;3.87;2.00;;;10.50;74.00;;;;;;4996198;28;20820;-77
2023/11/16 10:38:23;;;;;;;6.57;2.10;;;10.60;73.50;;;;;;5015192;28;20461;-75
2023/11/16 10:40:53;;;;;;;4.53;2.17;;;10.60;73.70;;;;;;5013047;28;20470;-76
2023/11/16 10:43:19;;;;;;;6.53;2.20;;;10.70;73.50;;;;;;5018442;28;20445;-75
2023/11/16 10:45:46;;;;;;;7.63;2.63;;;10.80;73.50;;;;;;5013735;28;20457;-76
2023/11/16 10:48:16;;;;;;;4.23;2.43;;;10.80;73.30;;;;;;5014303;28;20472;-77
2023/11/16 10:50:42;;;;;;;5.50;2.07;;;10.80;73.70;;;;;;5016830;28;20417;-76
2023/11/16 10:53:17;;;;;;;4.27;2.00;;;10.90;73.90;;;;;;5022665;28;20468;-77
2023/11/16 10:55:47;;;;;;;5.30;1.80;;;10.80;72.70;;;;;;5014675;28;20443;-77
2023/11/16 10:58:14;;;;;;;4.93;2.10;;;10.80;72.90;;;;;;5015182;28;20491;-76
2023/11/16 11:00:43;;;;;;;4.67;2.10;;;10.70;73.50;;;;;;5014361;28;20436;-76
2023/11/16 11:03:10;;;;;;;5.30;2.10;;;10.80;73.90;;;;;;5014798;28;20413;-75
2023/11/16 11:05:41;;;;;;;4.47;2.50;;;10.90;73.90;;;;;;5014153;28;20799;-76
2023/11/16 11:08:08;;;;;;;6.33;2.37;;;10.90;73.90;;;;;;5014404;28;20461;-76
2023/11/16 11:10:37;;;;;;;4.37;2.57;;;11.00;74.00;;;;;;5014174;28;20475;-76
2023/11/16 11:13:03;;;;;;;6.43;2.90;;;11.10;73.70;;;;;;5013687;28;20444;-76
2023/11/16 11:15:35;;;;;;;10.17;2.50;;;11.20;73.00;;;;;;5013776;28;20433;-75
2023/11/16 11:18:04;;;;;;;8.47;2.60;;;11.20;72.70;;;;;;5013753;28;20918;-77
2023/11/16 11:20:40;;;;;;;7.63;2.90;;;11.30;72.60;;;;;;5014935;28;20503;-77
2023/11/16 11:23:18;;;;;;;4.33;2.27;;;11.20;72.70;;;;;;5013823;28;20788;-77
2023/11/16 11:25:44;;;;;;;5.60;2.20;;;11.30;73.00;;;;;;5014796;28;20575;-77
2023/11/16 11:28:11;;;;;;;6.63;2.70;;;11.40;72.30;;;;;;5013686;28;20938;-76
2023/11/16 11:30:54;;;;;;;5.77;2.17;;;11.50;71.70;;;;;;4996652;28;20431;-76
2023/11/16 11:33:34;;;;;;;6.30;2.40;;;11.60;71.30;;;;;;5013731;28;20815;-75
2023/11/16 11:35:59;;;;;;;6.00;2.93;;;11.80;70.70;;;;;;5015281;28;20432;-75
2023/11/16 11:38:30;;;;;;;7.77;2.77;;;11.80;70.20;;;;;;5016468;28;20439;-76
2023/11/16 11:41:06;;;;;;;5.73;2.83;;;11.90;69.80;;;;;;5018414;28;20561;-76
2023/11/16 11:43:33;;;;;;;6.83;3.00;;;11.90;69.80;;;;;;5021668;28;20532;-75
2023/11/16 11:45:59;;;;;;;9.90;3.60;;;11.90;69.70;;;;;;5020719;28;20952;-75
2023/11/16 11:48:26;;;;;;;9.20;4.00;;;11.90;69.80;;;;;;5016912;28;20476;-76
2023/11/16 11:50:56;;;;;;;7.53;4.50;;;11.80;69.90;;;;;;5016316;28;21074;-76
2023/11/16 11:53:31;;;;;;;9.10;3.93;;;11.80;70.40;;;;;;5015651;28;20463;-75
2023/11/16 11:55:57;;;;;;;8.30;4.13;;;11.80;70.20;;;;;;5018063;28;20489;-76
2023/11/16 11:58:24;;;;;;;14.00;5.13;;;11.70;70.40;;;;;;5023104;28;20420;-75
2023/11/16 12:00:51;;;;;;;16.03;5.67;;;11.60;71.10;;;;;;5016349;28;20417;-76
2023/11/16 12:03:18;;;;;;;12.83;4.63;;;11.60;71.30;;;;;;5015069;28;20417;-75
2023/11/16 12:05:47;;;;;;;9.80;5.00;;;11.50;71.10;;;;;;5014306;28;21051;-75
2023/11/16 12:08:12;;;;;;;11.23;4.53;;;11.50;71.30;;;;;;5015001;28;20476;-74
2023/11/16 12:10:39;;;;;;;10.53;5.90;;;11.50;71.40;;;;;;4978971;28;20461;-75
2023/11/16 12:13:07;;;;;;;7.37;4.60;;;11.40;71.60;;;;;;4995207;28;20198;-75
2023/11/16 12:15:33;;;;;;;16.40;6.90;;;11.30;71.40;;;;;;4996152;28;20473;-75
2023/11/16 12:18:05;;;;;;;21.60;7.27;;;11.30;71.80;;;;;;4995957;28;20425;-76
2023/11/16 12:20:32;;;;;;;21.83;7.20;;;11.20;72.60;;;;;;5015646;28;20443;-76
2023/11/16 12:23:01;;;;;;;18.13;7.70;;;11.20;73.70;;;;;;5001785;28;20488;-77
2023/11/16 12:25:29;;;;;;;16.90;7.60;;;11.10;73.70;;;;;;4995771;28;20444;-75
2023/11/16 12:27:58;;;;;;;13.50;6.97;;;11.10;74.30;;;;;;4996381;28;20497;-76
2023/11/16 12:30:24;;;;;;;10.10;5.77;;;11.10;74.00;;;;;;4997308;28;20429;-75
2023/11/16 12:32:51;;;;;;;12.17;5.20;;;11.10;73.70;;;;;;4995946;28;20426;-75
2023/11/16 12:35:16;;;;;;;13.43;5.40;;;11.00;73.50;;;;;;4996612;28;20218;-76
2023/11/16 12:37:43;;;;;;;8.90;4.87;;;10.90;73.70;;;;;;4981643;28;20760;-76
2023/11/16 12:40:17;;;;;;;11.60;4.70;;;10.90;73.90;;;;;;4997886;28;20217;-76
2023/11/16 12:42:43;;;;;;;8.13;4.67;;;10.80;74.00;;;;;;4996223;28;20516;-77
2023/11/16 12:45:10;;;;;;;15.40;5.57;;;10.80;74.50;;;;;;4998321;28;20480;-76
2023/11/16 12:47:37;;;;;;;10.50;4.50;;;10.80;74.80;;;;;;5016305;28;20477;-76
2023/11/16 12:50:07;;;;;;;12.90;5.40;;;10.80;74.80;;;;;;5016229;28;20464;-76
2023/11/16 12:52:34;;;;;;;23.63;7.13;;;10.80;74.50;;;;;;4996171;28;20495;-75
2023/11/16 12:55:01;;;;;;;8.87;5.40;;;10.80;75.10;;;;;;4995502;28;20445;-76